createdAt,value
2018-05-12T00:00:00.065Z,10.90
2018-05-12T00:01:00.084Z,14.00
2018-05-12T00:02:00.105Z,13.00
2018-05-12T00:03:00.128Z,10.50
2018-05-12T00:04:00.149Z,11.60
2018-05-12T00:05:00.171Z,10.10
2018-05-12T00:06:00.194Z,12.60
2018-05-12T00:07:00.215Z,11.90
2018-05-12T00:08:00.237Z,14.30
2018-05-12T00:09:00.259Z,15.20
2018-05-12T00:10:00.280Z,10.70
2018-05-12T00:11:00.303Z,10.80
2018-05-12T00:12:00.325Z,11.10
2018-05-12T00:13:00.346Z,10.50
2018-05-12T00:14:00.368Z,10.60
2018-05-12T00:15:00.461Z,16.40
2018-05-12T00:16:00.413Z,14.90
2018-05-12T00:17:00.436Z,18.60
2018-05-12T00:18:00.455Z,15.40
2018-05-12T00:19:00.477Z,21.20
2018-05-12T00:20:00.500Z,21.20
2018-05-12T00:21:00.523Z,15.30
2018-05-12T00:22:00.549Z,14.70
2018-05-12T00:23:00.565Z,11.30
2018-05-12T00:24:00.588Z,11.40
2018-05-12T00:25:00.609Z,10.50
2018-05-12T00:26:00.634Z,14.90
2018-05-12T00:27:00.657Z,12.10
2018-05-12T00:28:00.675Z,11.20
2018-05-12T00:29:00.696Z,14.10
2018-05-12T00:30:00.717Z,15.40
2018-05-12T00:31:00.740Z,11.70
2018-05-12T00:32:00.762Z,11.20
2018-05-12T00:33:00.787Z,11.50
2018-05-12T00:34:00.805Z,11.30
2018-05-12T00:35:00.827Z,11.00
2018-05-12T00:36:00.849Z,11.20
2018-05-12T00:37:00.871Z,11.20
2018-05-12T00:38:00.892Z,10.80
2018-05-12T00:39:00.917Z,13.10
2018-05-12T00:40:00.938Z,12.20
2018-05-12T00:41:00.957Z,14.20
2018-05-12T00:42:00.984Z,21.80
2018-05-12T00:43:01.062Z,17.50
2018-05-12T00:44:01.023Z,16.60
2018-05-12T00:45:01.045Z,17.00
2018-05-12T00:46:01.070Z,12.30
2018-05-12T00:47:01.089Z,14.40
2018-05-12T00:48:01.110Z,13.30
2018-05-12T00:49:01.132Z,15.20
2018-05-12T00:50:01.155Z,12.70
2018-05-12T00:51:01.175Z,12.50
2018-05-12T00:52:01.197Z,12.90
2018-05-12T00:53:01.219Z,16.30
2018-05-12T00:54:01.240Z,19.70
2018-05-12T00:55:01.263Z,31.80
2018-05-12T00:56:01.287Z,19.20
2018-05-12T00:57:01.308Z,11.30
2018-05-12T00:58:01.328Z,10.60
2018-05-12T00:59:01.350Z,11.10
2018-05-12T01:00:01.372Z,11.20
2018-05-12T01:01:01.397Z,11.80
2018-05-12T01:02:01.415Z,11.00
2018-05-12T01:03:01.437Z,11.30
2018-05-12T01:04:01.459Z,12.30
2018-05-12T01:05:01.481Z,11.40
2018-05-12T01:06:01.502Z,11.10
2018-05-12T01:07:01.527Z,11.40
2018-05-12T01:08:01.546Z,10.60
2018-05-12T01:09:01.567Z,10.80
2018-05-12T01:10:01.590Z,11.60
2018-05-12T01:11:01.611Z,11.20
2018-05-12T01:12:01.633Z,11.20
2018-05-12T01:13:01.654Z,11.60
2018-05-12T01:14:01.682Z,11.30
2018-05-12T01:15:01.699Z,11.30
2018-05-12T01:16:01.719Z,11.40
2018-05-12T01:17:01.744Z,11.30
2018-05-12T01:18:01.763Z,12.00
2018-05-12T01:19:01.785Z,11.50
2018-05-12T01:20:01.808Z,11.60
2018-05-12T01:21:01.829Z,11.30
2018-05-12T01:22:01.851Z,10.60
2018-05-12T01:23:01.872Z,12.00
2018-05-12T01:24:01.898Z,13.80
2018-05-12T01:25:01.916Z,19.40
2018-05-12T01:26:01.937Z,18.00
2018-05-12T01:27:01.959Z,15.10
2018-05-12T01:28:01.982Z,12.30
2018-05-12T01:29:02.002Z,11.90
2018-05-12T01:30:02.025Z,11.70
2018-05-12T01:31:02.047Z,11.50
2018-05-12T01:32:02.269Z,12.50
2018-05-12T01:33:02.091Z,11.80
2018-05-12T01:34:02.116Z,12.10
2018-05-12T01:35:02.139Z,10.90
2018-05-12T01:36:02.157Z,12.00
2018-05-12T01:37:02.178Z,11.40
2018-05-12T01:38:02.199Z,11.90
2018-05-12T01:39:02.222Z,11.90
2018-05-12T01:40:02.243Z,12.10
2018-05-12T01:41:02.265Z,11.90
2018-05-12T01:42:02.286Z,12.10
2018-05-12T01:43:02.308Z,12.40
2018-05-12T01:44:02.330Z,12.00
2018-05-12T01:45:02.353Z,12.30
2018-05-12T01:46:02.373Z,12.20
2018-05-12T01:47:02.395Z,12.80
2018-05-12T01:48:02.417Z,12.00
2018-05-12T01:49:02.439Z,12.70
2018-05-12T01:50:02.462Z,12.90
2018-05-12T01:51:02.482Z,12.70
2018-05-12T01:52:02.506Z,12.40
2018-05-12T01:53:02.526Z,12.00
2018-05-12T01:54:02.547Z,12.60
2018-05-12T01:55:02.568Z,12.60
2018-05-12T01:56:02.596Z,12.70
2018-05-12T01:57:02.613Z,13.20
2018-05-12T01:58:02.639Z,12.60
2018-05-12T01:59:02.656Z,13.30
2018-05-12T02:00:02.678Z,12.60
2018-05-12T02:01:02.700Z,13.70
2018-05-12T02:02:02.722Z,14.00
2018-05-12T02:03:02.744Z,12.90
2018-05-12T02:04:02.766Z,13.70
2018-05-12T02:05:02.791Z,14.10
2018-05-12T02:06:02.809Z,13.60
2018-05-12T02:07:02.831Z,14.20
2018-05-12T02:08:02.853Z,14.80
2018-05-12T02:09:02.883Z,14.40
2018-05-12T02:10:02.897Z,13.70
2018-05-12T02:11:02.919Z,15.40
2018-05-12T02:12:02.941Z,16.30
2018-05-12T02:13:02.964Z,17.40
2018-05-12T02:14:02.985Z,18.50
2018-05-12T02:15:03.006Z,19.10
2018-05-12T02:16:03.028Z,18.60
2018-05-12T02:17:03.049Z,18.70
2018-05-12T02:18:03.072Z,18.00
2018-05-12T02:19:03.094Z,16.70
2018-05-12T02:20:03.116Z,17.40
2018-05-12T02:21:03.138Z,15.70
2018-05-12T02:22:03.159Z,15.30
2018-05-12T02:23:03.181Z,15.10
2018-05-12T02:24:03.206Z,14.00
2018-05-12T02:25:03.230Z,13.90
2018-05-12T02:26:03.246Z,13.60
2018-05-12T02:27:03.268Z,14.40
2018-05-12T02:28:03.293Z,13.90
2018-05-12T02:29:03.313Z,14.50
2018-05-12T02:30:03.334Z,14.00
2018-05-12T02:31:03.356Z,14.00
2018-05-12T02:32:03.377Z,13.30
2018-05-12T02:33:03.401Z,14.60
2018-05-12T02:34:03.422Z,13.90
2018-05-12T02:35:03.448Z,14.10
2018-05-12T02:36:03.466Z,13.80
2018-05-12T02:37:03.488Z,13.90
2018-05-12T02:38:03.511Z,14.70
2018-05-12T02:39:03.533Z,13.80
2018-05-12T02:40:03.555Z,13.60
2018-05-12T02:41:03.580Z,13.10
2018-05-12T02:42:03.597Z,13.80
2018-05-12T02:43:03.618Z,14.00
2018-05-12T02:44:03.642Z,13.90
2018-05-12T02:45:03.665Z,13.80
2018-05-12T02:46:03.683Z,14.90
2018-05-12T02:47:03.707Z,14.10
2018-05-12T02:48:03.728Z,13.70
2018-05-12T02:49:03.751Z,14.20
2018-05-12T02:50:03.771Z,14.40
2018-05-12T02:51:03.793Z,14.00
2018-05-12T02:52:03.815Z,13.80
2018-05-12T02:53:03.836Z,14.10
2018-05-12T02:54:03.863Z,13.80
2018-05-12T02:55:03.880Z,14.00
2018-05-12T02:56:03.902Z,14.20
2018-05-12T02:57:03.925Z,14.90
2018-05-12T02:58:03.946Z,13.70
2018-05-12T02:59:03.966Z,14.00
2018-05-12T03:00:03.989Z,13.90
2018-05-12T03:01:04.019Z,13.60
2018-05-12T03:02:04.031Z,14.20
2018-05-12T03:03:04.053Z,15.40
2018-05-12T03:04:04.079Z,14.90
2018-05-12T03:05:04.097Z,15.10
2018-05-12T03:06:04.119Z,14.70
2018-05-12T03:07:04.141Z,14.20
2018-05-12T03:08:04.163Z,15.00
2018-05-12T03:09:04.184Z,15.50
2018-05-12T03:10:04.205Z,14.40
2018-05-12T03:11:04.227Z,15.00
2018-05-12T03:12:04.248Z,15.40
2018-05-12T03:13:04.270Z,15.10
2018-05-12T03:14:04.293Z,16.40
2018-05-12T03:15:04.318Z,15.30
2018-05-12T03:16:04.334Z,15.10
2018-05-12T03:17:04.357Z,15.70
2018-05-12T03:18:04.377Z,14.90
2018-05-12T03:19:04.398Z,15.40
2018-05-12T03:20:04.420Z,15.40
2018-05-12T03:21:04.442Z,16.00
2018-05-12T03:22:04.464Z,15.90
2018-05-12T03:23:04.484Z,15.70
2018-05-12T03:24:04.507Z,15.10
2018-05-12T03:25:04.527Z,16.00
2018-05-12T03:26:04.611Z,16.30
2018-05-12T03:27:04.570Z,16.00
2018-05-12T03:28:04.591Z,15.40
2018-05-12T03:29:04.612Z,16.50
2018-05-12T03:30:04.633Z,16.50
2018-05-12T03:31:04.655Z,16.70
2018-05-12T03:32:04.676Z,16.20
2018-05-12T03:33:04.698Z,16.20
2018-05-12T03:34:04.719Z,16.50
2018-05-12T03:35:04.739Z,16.70
2018-05-12T03:36:04.765Z,15.90
2018-05-12T03:37:04.783Z,15.90
2018-05-12T03:38:04.803Z,15.90
2018-05-12T03:39:04.825Z,16.80
2018-05-12T03:40:04.847Z,17.00
2018-05-12T03:41:04.869Z,16.10
2018-05-12T03:42:04.895Z,17.40
2018-05-12T03:43:04.910Z,16.90
2018-05-12T03:44:04.932Z,17.70
2018-05-12T03:45:04.953Z,17.20
2018-05-12T03:46:04.972Z,16.50
2018-05-12T03:47:04.995Z,16.40
2018-05-12T03:48:05.016Z,19.30
2018-05-12T03:49:05.041Z,18.90
2018-05-12T03:50:05.058Z,18.40
2018-05-12T03:51:05.080Z,16.60
2018-05-12T03:52:05.101Z,18.00
2018-05-12T03:53:05.123Z,18.50
2018-05-12T03:54:05.143Z,16.90
2018-05-12T03:55:05.164Z,17.50
2018-05-12T03:56:05.185Z,17.40
2018-05-12T03:57:05.207Z,17.80
2018-05-12T03:58:05.228Z,17.70
2018-05-12T03:59:05.250Z,16.20
2018-05-12T04:00:05.348Z,16.70
2018-05-12T04:01:05.292Z,16.60
2018-05-12T04:02:05.313Z,17.60
2018-05-12T04:03:05.333Z,16.40
2018-05-12T04:04:05.356Z,17.00
2018-05-12T04:05:05.381Z,17.40
2018-05-12T04:06:05.397Z,17.20
2018-05-12T04:07:05.418Z,15.70
2018-05-12T04:08:05.439Z,15.60
2018-05-12T04:09:05.462Z,16.80
2018-05-12T04:10:05.483Z,16.60
2018-05-12T04:11:05.503Z,16.70
2018-05-12T04:12:05.526Z,16.40
2018-05-12T04:13:05.545Z,17.40
2018-05-12T04:14:05.566Z,17.40
2018-05-12T04:15:05.592Z,17.30
2018-05-12T04:16:05.609Z,17.40
2018-05-12T04:17:05.635Z,18.00
2018-05-12T04:18:05.651Z,17.30
2018-05-12T04:19:05.672Z,17.90
2018-05-12T04:20:05.695Z,16.90
2018-05-12T04:21:05.808Z,16.80
2018-05-12T04:22:05.735Z,16.60
2018-05-12T04:23:05.756Z,16.70
2018-05-12T04:24:05.777Z,16.80
2018-05-12T04:25:05.799Z,17.70
2018-05-12T04:26:05.819Z,16.20
2018-05-12T04:27:05.841Z,15.90
2018-05-12T04:28:05.861Z,17.10
2018-05-12T04:29:05.883Z,16.90
2018-05-12T04:30:05.904Z,16.40
2018-05-12T04:31:05.924Z,17.00
2018-05-12T04:32:05.947Z,16.50
2018-05-12T04:33:05.967Z,17.20
2018-05-12T04:34:05.988Z,17.70
2018-05-12T04:35:06.009Z,17.30
2018-05-12T04:36:06.031Z,16.90
2018-05-12T04:37:06.052Z,17.30
2018-05-12T04:38:06.074Z,16.90
2018-05-12T04:39:06.094Z,17.30
2018-05-12T04:40:06.115Z,16.30
2018-05-12T04:41:06.136Z,17.20
2018-05-12T04:42:06.157Z,17.60
2018-05-12T04:43:06.177Z,17.10
2018-05-12T04:44:06.200Z,16.90
2018-05-12T04:45:06.221Z,16.70
2018-05-12T04:46:06.241Z,16.70
2018-05-12T04:47:06.263Z,17.20
2018-05-12T04:48:06.283Z,17.30
2018-05-12T04:49:06.306Z,17.20
2018-05-12T04:50:06.326Z,17.90
2018-05-12T04:51:06.347Z,28.90
2018-05-12T04:52:06.369Z,28.50
2018-05-12T04:53:06.396Z,23.40
2018-05-12T04:54:06.412Z,18.40
2018-05-12T04:55:06.432Z,17.90
2018-05-12T04:56:06.454Z,17.70
2018-05-12T04:57:06.475Z,17.50
2018-05-12T04:58:06.494Z,16.30
2018-05-12T04:59:06.519Z,16.50
2018-05-12T05:00:06.538Z,17.20
2018-05-12T05:01:06.561Z,18.50
2018-05-12T05:02:06.581Z,18.80
2018-05-12T05:03:06.601Z,17.90
2018-05-12T05:04:06.624Z,17.60
2018-05-12T05:05:06.646Z,17.60
2018-05-12T05:06:06.666Z,17.80
2018-05-12T05:07:06.688Z,17.10
2018-05-12T05:08:06.756Z,16.80
2018-05-12T05:09:06.731Z,17.60
2018-05-12T05:10:06.749Z,17.70
2018-05-12T05:11:06.772Z,17.00
2018-05-12T05:12:06.794Z,17.60
2018-05-12T05:13:06.815Z,17.80
2018-05-12T05:14:06.837Z,18.70
2018-05-12T05:15:06.858Z,18.90
2018-05-12T05:16:06.879Z,17.80
2018-05-12T05:17:06.902Z,17.00
2018-05-12T05:18:06.922Z,17.60
2018-05-12T05:19:06.944Z,17.90
2018-05-12T05:20:06.967Z,18.10
2018-05-12T05:21:07.051Z,19.00
2018-05-12T05:22:07.008Z,18.30
2018-05-12T05:23:07.030Z,17.50
2018-05-12T05:24:07.059Z,18.50
2018-05-12T05:25:07.073Z,18.10
2018-05-12T05:26:07.096Z,17.80
2018-05-12T05:27:07.117Z,18.30
2018-05-12T05:28:07.138Z,17.80
2018-05-12T05:29:07.160Z,18.60
2018-05-12T05:30:07.182Z,18.40
2018-05-12T05:31:07.202Z,17.60
2018-05-12T05:32:07.224Z,19.90
2018-05-12T05:33:07.245Z,17.80
2018-05-12T05:34:07.267Z,17.40
2018-05-12T05:35:07.380Z,19.10
2018-05-12T05:36:07.311Z,17.80
2018-05-12T05:37:07.333Z,17.30
2018-05-12T05:38:07.353Z,18.00
2018-05-12T05:39:07.378Z,17.80
2018-05-12T05:40:07.397Z,16.80
2018-05-12T05:41:07.419Z,17.20
2018-05-12T05:42:07.440Z,17.10
2018-05-12T05:43:07.462Z,16.90
2018-05-12T05:44:07.485Z,16.90
2018-05-12T05:45:07.507Z,18.70
2018-05-12T05:46:07.528Z,17.20
2018-05-12T05:47:07.549Z,17.30
2018-05-12T05:48:07.573Z,16.80
2018-05-12T05:49:07.595Z,17.60
2018-05-12T05:50:07.712Z,16.40
2018-05-12T05:51:07.642Z,16.50
2018-05-12T05:52:07.663Z,17.10
2018-05-12T05:53:07.685Z,17.20
2018-05-12T05:54:07.710Z,17.20
2018-05-12T05:55:07.729Z,17.80
2018-05-12T05:56:07.754Z,16.70
2018-05-12T05:57:07.776Z,17.40
2018-05-12T05:58:07.797Z,16.50
2018-05-12T05:59:07.820Z,16.30
2018-05-12T06:00:07.841Z,16.20
2018-05-12T06:01:07.866Z,16.60
2018-05-12T06:02:07.888Z,17.10
2018-05-12T06:03:07.911Z,16.50
2018-05-12T06:04:07.937Z,17.00
2018-05-12T06:05:07.958Z,17.00
2018-05-12T06:06:07.978Z,16.70
2018-05-12T06:07:08.089Z,16.40
2018-05-12T06:08:08.025Z,16.50
2018-05-12T06:09:08.047Z,16.20
2018-05-12T06:10:08.072Z,15.60
2018-05-12T06:11:08.092Z,16.90
2018-05-12T06:12:08.115Z,17.10
2018-05-12T06:13:08.138Z,15.90
2018-05-12T06:14:08.161Z,16.00
2018-05-12T06:15:08.182Z,15.60
2018-05-12T06:16:08.205Z,15.70
2018-05-12T06:17:08.229Z,17.10
2018-05-12T06:18:08.272Z,16.30
2018-05-12T06:19:08.275Z,16.60
2018-05-12T06:20:08.298Z,16.90
2018-05-12T06:21:08.320Z,17.50
2018-05-12T06:22:08.341Z,15.40
2018-05-12T06:23:08.364Z,17.20
2018-05-12T06:24:08.387Z,16.30
2018-05-12T06:25:08.410Z,16.50
2018-05-12T06:26:08.432Z,16.00
2018-05-12T06:27:08.455Z,17.20
2018-05-12T06:28:08.478Z,16.80
2018-05-12T06:29:08.506Z,15.70
2018-05-12T06:30:08.526Z,15.40
2018-05-12T06:31:08.546Z,16.80
2018-05-12T06:32:08.571Z,16.80
2018-05-12T06:33:08.593Z,16.00
2018-05-12T06:34:08.615Z,16.20
2018-05-12T06:35:08.639Z,15.70
2018-05-12T06:36:08.662Z,15.90
2018-05-12T06:37:08.685Z,16.10
2018-05-12T06:38:08.708Z,17.40
2018-05-12T06:39:08.730Z,15.90
2018-05-12T06:40:08.754Z,16.70
2018-05-12T06:41:08.777Z,16.00
2018-05-12T06:42:08.799Z,15.60
2018-05-12T06:43:08.821Z,16.20
2018-05-12T06:44:08.845Z,16.00
2018-05-12T06:45:08.868Z,15.60
2018-05-12T06:46:08.890Z,15.80
2018-05-12T06:47:08.913Z,15.60
2018-05-12T06:48:08.938Z,17.10
2018-05-12T06:49:08.960Z,16.90
2018-05-12T06:50:08.982Z,16.20
2018-05-12T06:51:09.005Z,15.40
2018-05-12T06:52:09.032Z,16.40
2018-05-12T06:53:09.052Z,17.20
2018-05-12T06:54:09.075Z,16.70
2018-05-12T06:55:09.098Z,17.00
2018-05-12T06:56:09.120Z,16.30
2018-05-12T06:57:09.143Z,15.30
2018-05-12T06:58:09.166Z,16.10
2018-05-12T06:59:09.189Z,15.80
2018-05-12T07:00:09.213Z,15.50
2018-05-12T07:01:09.241Z,15.30
2018-05-12T07:02:09.263Z,15.60
2018-05-12T07:03:09.282Z,15.30
2018-05-12T07:04:09.307Z,15.10
2018-05-12T07:05:09.334Z,16.00
2018-05-12T07:06:09.352Z,15.70
2018-05-12T07:07:09.374Z,15.10
2018-05-12T07:08:09.400Z,15.60
2018-05-12T07:09:09.421Z,16.20
2018-05-12T07:10:09.443Z,16.60
2018-05-12T07:11:09.468Z,15.00
2018-05-12T07:12:09.501Z,14.20
2018-05-12T07:13:09.518Z,14.30
2018-05-12T07:14:09.538Z,13.50
2018-05-12T07:15:09.565Z,12.90
2018-05-12T07:16:09.584Z,13.70
2018-05-12T07:17:09.609Z,13.20
2018-05-12T07:18:09.632Z,14.80
2018-05-12T07:19:09.656Z,15.30
2018-05-12T07:20:09.679Z,14.90
2018-05-12T07:21:09.704Z,14.50
2018-05-12T07:22:09.727Z,15.00
2018-05-12T07:23:09.752Z,15.40
2018-05-12T07:24:09.776Z,15.80
2018-05-12T07:25:09.801Z,14.90
2018-05-12T07:26:09.825Z,15.80
2018-05-12T07:27:09.849Z,15.60
2018-05-12T07:28:09.879Z,15.40
2018-05-12T07:29:09.899Z,15.00
2018-05-12T07:30:09.923Z,14.90
2018-05-12T07:31:09.948Z,14.90
2018-05-12T07:32:09.976Z,13.80
2018-05-12T07:33:09.997Z,14.40
2018-05-12T07:34:10.023Z,15.30
2018-05-12T07:35:10.046Z,15.20
2018-05-12T07:36:10.075Z,15.30
2018-05-12T07:37:10.101Z,15.10
2018-05-12T07:38:10.122Z,14.00
2018-05-12T07:39:10.241Z,14.00
2018-05-12T07:40:10.172Z,14.10
2018-05-12T07:41:10.198Z,12.30
2018-05-12T07:42:10.225Z,12.40
2018-05-12T07:43:10.248Z,12.30
2018-05-12T07:44:10.277Z,12.40
2018-05-12T07:45:10.299Z,13.10
2018-05-12T07:46:10.323Z,13.30
2018-05-12T07:47:10.349Z,13.30
2018-05-12T07:48:10.374Z,13.30
2018-05-12T07:49:10.400Z,12.60
2018-05-12T07:50:10.425Z,12.50
2018-05-12T07:51:10.450Z,12.20
2018-05-12T07:52:10.476Z,11.50
2018-05-12T07:53:10.502Z,12.60
2018-05-12T07:54:10.576Z,13.00
2018-05-12T07:55:10.552Z,13.80
2018-05-12T07:56:10.579Z,13.90
2018-05-12T07:57:10.603Z,14.00
2018-05-12T07:58:10.628Z,12.90
2018-05-12T07:59:10.653Z,13.30
2018-05-12T08:00:10.679Z,13.80
2018-05-12T08:01:10.705Z,13.00
2018-05-12T08:02:10.730Z,12.50
2018-05-12T08:03:10.755Z,12.60
2018-05-12T08:04:10.781Z,12.90
2018-05-12T08:05:10.810Z,12.60
2018-05-12T08:06:10.838Z,12.50
2018-05-12T08:07:10.857Z,11.90
2018-05-12T08:08:10.884Z,12.70
2018-05-12T08:09:10.909Z,12.70
2018-05-12T08:10:10.985Z,12.30
2018-05-12T08:11:10.960Z,12.50
2018-05-12T08:12:10.985Z,12.50
2018-05-12T08:13:11.012Z,13.60
2018-05-12T08:14:11.037Z,12.90
2018-05-12T08:15:11.063Z,13.00
2018-05-12T08:16:11.090Z,12.70
2018-05-12T08:17:11.118Z,12.90
2018-05-12T08:18:11.143Z,12.30
2018-05-12T08:19:11.165Z,13.20
2018-05-12T08:20:11.193Z,13.00
2018-05-12T08:21:11.217Z,14.00
2018-05-12T08:22:11.242Z,13.30
2018-05-12T08:23:11.268Z,13.60
2018-05-12T08:24:11.294Z,12.10
2018-05-12T08:25:11.319Z,14.40
2018-05-12T08:26:11.477Z,13.50
2018-05-12T08:27:11.371Z,12.60
2018-05-12T08:28:11.397Z,13.60
2018-05-12T08:29:11.423Z,12.60
2018-05-12T08:30:11.448Z,13.40
2018-05-12T08:31:11.474Z,12.90
2018-05-12T08:32:11.500Z,13.00
2018-05-12T08:33:11.526Z,11.40
2018-05-12T08:34:11.552Z,12.70
2018-05-12T08:35:11.577Z,11.60
2018-05-12T08:36:11.655Z,12.10
2018-05-12T08:37:11.632Z,13.20
2018-05-12T08:38:11.654Z,12.90
2018-05-12T08:39:11.682Z,12.20
2018-05-12T08:40:11.707Z,12.40
2018-05-12T08:41:11.736Z,12.70
2018-05-12T08:42:11.758Z,11.40
2018-05-12T08:43:11.784Z,11.10
2018-05-12T08:44:11.811Z,10.40
2018-05-12T08:45:11.839Z,9.70
2018-05-12T08:46:11.861Z,9.60
2018-05-12T08:47:11.888Z,9.60
2018-05-12T08:48:11.967Z,9.40
2018-05-12T08:49:11.943Z,9.90
2018-05-12T08:50:11.965Z,10.20
2018-05-12T08:51:11.992Z,10.20
2018-05-12T08:52:12.019Z,8.10
2018-05-12T08:53:12.045Z,8.40
2018-05-12T08:54:12.173Z,7.90
2018-05-12T08:55:12.131Z,7.30
2018-05-12T08:56:12.123Z,6.70
2018-05-12T08:57:12.148Z,5.80
2018-05-12T08:58:12.179Z,6.80
2018-05-12T08:59:12.201Z,7.30
2018-05-12T09:00:12.226Z,6.80
2018-05-12T09:01:12.253Z,7.50
2018-05-12T09:02:12.280Z,8.40
2018-05-12T09:03:12.308Z,7.90
2018-05-12T09:04:12.330Z,7.80
2018-05-12T09:05:12.355Z,7.00
2018-05-12T09:06:12.381Z,7.00
2018-05-12T09:07:12.419Z,6.80
2018-05-12T09:08:12.434Z,5.80
2018-05-12T09:09:12.460Z,6.60
2018-05-12T09:10:12.488Z,6.80
2018-05-12T09:11:12.512Z,7.40
2018-05-12T09:12:12.540Z,7.30
2018-05-12T09:13:12.565Z,7.50
2018-05-12T09:14:12.591Z,7.70
2018-05-12T09:15:12.617Z,6.30
2018-05-12T09:16:12.647Z,6.20
2018-05-12T09:17:12.675Z,6.70
2018-05-12T09:18:12.696Z,6.60
2018-05-12T09:19:12.811Z,7.20
2018-05-12T09:20:12.751Z,7.70
2018-05-12T09:21:12.775Z,6.70
2018-05-12T09:22:12.802Z,7.10
2018-05-12T09:23:12.828Z,6.70
2018-05-12T09:24:12.856Z,6.80
2018-05-12T09:25:12.881Z,7.00
2018-05-12T09:26:12.907Z,5.40
2018-05-12T09:27:12.934Z,6.30
2018-05-12T09:28:12.960Z,6.70
2018-05-12T09:29:12.987Z,5.90
2018-05-12T09:30:13.011Z,6.70
2018-05-12T09:31:13.039Z,6.50
2018-05-12T09:32:13.065Z,6.50
2018-05-12T09:33:13.093Z,7.00
2018-05-12T09:34:13.122Z,7.60
2018-05-12T09:35:13.145Z,7.70
2018-05-12T09:36:13.221Z,7.40
2018-05-12T09:37:13.201Z,7.30
2018-05-12T09:38:13.224Z,7.80
2018-05-12T09:39:13.251Z,8.90
2018-05-12T09:40:13.276Z,8.80
2018-05-12T09:41:13.305Z,9.10
2018-05-12T09:42:13.364Z,9.70
2018-05-12T09:43:13.356Z,9.80
2018-05-12T09:44:13.383Z,10.60
2018-05-12T09:45:13.411Z,9.70
2018-05-12T09:46:13.434Z,9.70
2018-05-12T09:47:13.462Z,10.40
2018-05-12T09:48:13.489Z,11.10
2018-05-12T09:49:13.519Z,10.40
2018-05-12T09:50:13.541Z,9.80
2018-05-12T09:51:13.568Z,10.10
2018-05-12T09:52:13.595Z,7.40
2018-05-12T09:53:13.871Z,6.70
2018-05-12T09:54:13.647Z,6.40
2018-05-12T09:55:13.673Z,7.40
2018-05-12T09:56:13.701Z,6.80
2018-05-12T09:57:13.727Z,7.80
2018-05-12T09:58:13.752Z,7.00
2018-05-12T09:59:13.780Z,7.00
2018-05-12T10:00:13.806Z,7.30
2018-05-12T10:01:13.834Z,8.10
2018-05-12T10:02:13.860Z,8.70
2018-05-12T10:03:13.886Z,9.20
2018-05-12T10:04:13.914Z,9.40
2018-05-12T10:05:13.940Z,9.40
2018-05-12T10:06:13.967Z,9.00
2018-05-12T10:07:13.994Z,8.90
2018-05-12T10:08:14.028Z,8.90
2018-05-12T10:09:14.049Z,8.90
2018-05-12T10:10:14.074Z,8.50
2018-05-12T10:11:14.102Z,8.60
2018-05-12T10:12:14.129Z,9.70
2018-05-12T10:13:14.157Z,9.10
2018-05-12T10:14:14.182Z,8.30
2018-05-12T10:15:14.210Z,9.00
2018-05-12T10:16:14.237Z,8.60
2018-05-12T10:17:14.265Z,8.60
2018-05-12T10:18:14.289Z,7.60
2018-05-12T10:19:14.318Z,8.80
2018-05-12T10:20:14.345Z,8.10
2018-05-12T10:21:14.372Z,8.10
2018-05-12T10:22:14.398Z,6.30
2018-05-12T10:23:14.425Z,5.60
2018-05-12T10:24:14.453Z,6.60
2018-05-12T10:25:14.481Z,6.40
2018-05-12T10:26:14.628Z,6.80
2018-05-12T10:27:14.583Z,6.70
2018-05-12T10:28:14.561Z,6.50
2018-05-12T10:29:14.587Z,6.80
2018-05-12T10:30:14.613Z,6.40
2018-05-12T10:31:14.642Z,7.00
2018-05-12T10:32:14.669Z,7.10
2018-05-12T10:33:14.694Z,6.90
2018-05-12T10:34:14.723Z,7.80
2018-05-12T10:35:14.748Z,7.90
2018-05-12T10:36:14.774Z,7.70
2018-05-12T10:37:14.801Z,7.40
2018-05-12T10:38:14.826Z,7.30
2018-05-12T10:39:14.857Z,6.70
2018-05-12T10:40:14.881Z,7.40
2018-05-12T10:41:14.909Z,7.80
2018-05-12T10:42:14.934Z,7.60
2018-05-12T10:43:14.960Z,8.00
2018-05-12T10:44:14.987Z,8.10
2018-05-12T10:45:15.017Z,8.20
2018-05-12T10:46:15.040Z,8.80
2018-05-12T10:47:15.067Z,7.80
2018-05-12T10:48:15.093Z,7.40
2018-05-12T10:49:15.122Z,6.10
2018-05-12T10:50:15.146Z,6.30
2018-05-12T10:51:15.173Z,6.30
2018-05-12T10:52:15.200Z,5.20
2018-05-12T10:53:15.227Z,5.70
2018-05-12T10:54:15.252Z,5.40
2018-05-12T10:55:15.280Z,5.30
2018-05-12T10:56:15.306Z,5.80
2018-05-12T10:57:15.334Z,5.50
2018-05-12T10:58:15.360Z,6.30
2018-05-12T10:59:15.387Z,5.30
2018-05-12T11:00:15.414Z,5.70
2018-05-12T11:01:15.442Z,6.30
2018-05-12T11:02:15.471Z,8.20
2018-05-12T11:03:15.495Z,7.00
2018-05-12T11:04:15.522Z,6.80
2018-05-12T11:05:15.551Z,6.50
2018-05-12T11:06:15.576Z,7.10
2018-05-12T11:07:15.640Z,6.40
2018-05-12T11:08:15.632Z,6.10
2018-05-12T11:09:15.657Z,6.50
2018-05-12T11:10:15.685Z,6.20
2018-05-12T11:11:15.713Z,6.80
2018-05-12T11:12:15.741Z,6.80
2018-05-12T11:13:15.771Z,7.00
2018-05-12T11:14:15.795Z,6.60
2018-05-12T11:15:15.823Z,7.20
2018-05-12T11:16:15.851Z,7.20
2018-05-12T11:17:15.878Z,6.80
2018-05-12T11:18:15.906Z,7.10
2018-05-12T11:19:15.933Z,6.90
2018-05-12T11:20:15.964Z,7.40
2018-05-12T11:21:15.988Z,6.70
2018-05-12T11:22:16.015Z,7.00
2018-05-12T11:23:16.044Z,7.70
2018-05-12T11:24:16.072Z,7.50
2018-05-12T11:25:16.101Z,7.70
2018-05-12T11:26:16.127Z,9.70
2018-05-12T11:27:16.156Z,21.90
2018-05-12T11:28:16.189Z,13.50
2018-05-12T11:29:16.211Z,25.60
2018-05-12T11:30:16.237Z,8.50
2018-05-12T11:31:16.268Z,9.90
2018-05-12T11:32:16.414Z,9.60
2018-05-12T11:33:16.323Z,10.50
2018-05-12T11:34:16.352Z,21.40
2018-05-12T11:35:16.377Z,23.10
2018-05-12T11:36:16.406Z,8.50
2018-05-12T11:37:16.433Z,8.40
2018-05-12T11:38:16.460Z,7.80
2018-05-12T11:39:16.488Z,8.70
2018-05-12T11:40:16.516Z,7.60
2018-05-12T11:41:16.544Z,8.70
2018-05-12T11:42:16.570Z,8.00
2018-05-12T11:43:16.602Z,8.50
2018-05-12T11:44:16.626Z,8.10
2018-05-12T11:45:16.655Z,8.50
2018-05-12T11:46:16.681Z,9.30
2018-05-12T11:47:16.709Z,19.60
2018-05-12T11:48:16.737Z,10.90
2018-05-12T11:49:16.767Z,11.60
2018-05-12T11:50:16.797Z,9.20
2018-05-12T11:51:16.819Z,9.30
2018-05-12T11:52:16.847Z,9.70
2018-05-12T11:53:16.874Z,8.80
2018-05-12T11:54:16.900Z,8.20
2018-05-12T11:55:16.933Z,9.30
2018-05-12T11:56:16.956Z,9.10
2018-05-12T11:57:16.983Z,9.10
2018-05-12T11:58:17.015Z,8.90
2018-05-12T11:59:17.036Z,8.90
2018-05-12T12:00:17.066Z,8.30
2018-05-12T12:01:17.092Z,8.50
2018-05-12T12:02:17.124Z,7.80
2018-05-12T12:03:17.146Z,7.90
2018-05-12T12:04:17.174Z,21.50
2018-05-12T12:05:17.203Z,10.60
2018-05-12T12:06:17.232Z,9.90
2018-05-12T12:07:17.257Z,8.10
2018-05-12T12:08:17.287Z,6.70
2018-05-12T12:09:17.312Z,6.90
2018-05-12T12:10:17.339Z,7.60
2018-05-12T12:11:17.366Z,7.20
2018-05-12T12:12:17.396Z,8.30
2018-05-12T12:13:17.423Z,8.90
2018-05-12T12:14:17.449Z,8.20
2018-05-12T12:15:17.477Z,8.20
2018-05-12T12:16:17.510Z,7.90
2018-05-12T12:17:17.534Z,8.10
2018-05-12T12:18:17.565Z,7.60
2018-05-12T12:19:17.588Z,7.50
2018-05-12T12:20:17.616Z,7.50
2018-05-12T12:21:17.644Z,7.80
2018-05-12T12:22:17.669Z,7.60
2018-05-12T12:23:17.698Z,7.80
2018-05-12T12:24:17.725Z,6.80
2018-05-12T12:25:17.753Z,7.00
2018-05-12T12:26:17.780Z,6.60
2018-05-12T12:27:17.807Z,6.90
2018-05-12T12:28:17.836Z,6.90
2018-05-12T12:29:17.862Z,7.00
2018-05-12T12:30:17.893Z,13.40
2018-05-12T12:31:17.918Z,11.40
2018-05-12T12:32:17.944Z,9.70
2018-05-12T12:33:18.101Z,7.60
2018-05-12T12:34:18.000Z,7.60
2018-05-12T12:35:18.028Z,16.40
2018-05-12T12:36:18.057Z,7.10
2018-05-12T12:37:18.083Z,6.90
2018-05-12T12:38:18.111Z,6.60
2018-05-12T12:39:18.141Z,6.80
2018-05-12T12:40:18.170Z,7.10
2018-05-12T12:41:18.195Z,6.80
2018-05-12T12:42:18.223Z,6.90
2018-05-12T12:43:18.250Z,6.70
2018-05-12T12:44:18.277Z,7.00
2018-05-12T12:45:18.311Z,6.30
2018-05-12T12:46:18.333Z,7.60
2018-05-12T12:47:18.361Z,6.00
2018-05-12T12:48:18.388Z,5.50
2018-05-12T12:49:18.417Z,5.90
2018-05-12T12:50:18.444Z,5.80
2018-05-12T12:51:18.472Z,6.10
2018-05-12T12:52:18.504Z,6.50
2018-05-12T12:53:18.536Z,6.10
2018-05-12T12:54:18.557Z,5.60
2018-05-12T12:55:18.584Z,5.90
2018-05-12T12:56:18.612Z,5.90
2018-05-12T12:57:18.645Z,5.20
2018-05-12T12:58:18.745Z,5.20
2018-05-12T12:59:18.751Z,5.70
2018-05-12T13:00:18.729Z,6.10